Time;durP1;ratioP1;P1;durP2;ratioP2;P2;SDS_P1;SDS_P2;PMS_P1;PMS_P2;Temp;Humidity;BMP_temperature;BMP_pressure;BME280_temperature;BME280_humidity;BME280_pressure;Samples;Min_cycle;Max_cycle;Signal;HPM_P1;HPM_P2
2022/05/07 00:01:45;;;;;;;;;9.50;6.50;;;;;26.20;32.58;101987.16;5020435;28;45521;-86
2022/05/07 00:04:22;;;;;;;;;5.75;5.50;;;;;26.03;32.79;101999.91;5006724;28;45286;-86
2022/05/07 00:06:55;;;;;;;;;7.00;7.00;;;;;26.11;33.37;101990.06;5026142;28;45357;-85
2022/05/07 00:09:24;;;;;;;;;9.25;6.25;;;;;25.99;33.63;101992.31;5024559;28;46349;-85
2022/05/07 00:11:54;;;;;;;;;7.50;6.25;;;;;25.94;33.86;101992.00;5006265;28;45298;-86
2022/05/07 00:14:19;;;;;;;;;9.00;7.00;;;;;25.81;34.15;101984.41;5003488;28;46212;-85
2022/05/07 00:19:49;;;;;;;;;12.00;10.00;;;;;25.64;34.56;101988.16;5022371;28;45496;-86
2022/05/07 00:22:18;;;;;;;;;9.50;7.75;;;;;25.55;34.66;101976.47;5002985;28;45765;-85
2022/05/07 00:24:54;;;;;;;;;9.00;6.50;;;;;25.64;34.77;101982.75;5022744;28;45469;-85
2022/05/07 00:27:20;;;;;;;;;11.00;7.25;;;;;25.62;34.07;101984.78;5021486;28;46122;-85
2022/05/07 00:29:48;;;;;;;;;12.50;9.00;;;;;25.57;34.33;101979.03;5020023;28;47178;-85
2022/05/07 00:32:16;;;;;;;;;9.50;7.00;;;;;25.67;34.12;101982.41;5021054;28;45599;-84
2022/05/07 00:34:41;;;;;;;;;7.75;7.75;;;;;25.81;34.24;101970.88;5021582;28;45332;-86
2022/05/07 00:37:19;;;;;;;;;7.00;7.00;;;;;25.56;34.45;101980.88;4994600;28;45400;-83
2022/05/07 00:39:48;;;;;;;;;9.50;7.25;;;;;25.71;33.84;101975.63;5020384;28;45449;-85
2022/05/07 00:42:15;;;;;;;;;8.25;8.00;;;;;25.63;34.71;101981.06;5009944;28;45739;-85
2022/05/07 00:44:51;;;;;;;;;10.00;8.00;;;;;25.56;34.96;101986.28;4996223;28;45417;-85
2022/05/07 00:47:31;;;;;;;;;9.00;9.00;;;;;25.53;35.00;101986.63;4991876;28;45398;-85
2022/05/07 00:52:47;;;;;;;;;9.75;8.50;;;;;25.45;35.02;101966.84;5009397;28;46026;-85
2022/05/07 00:55:23;;;;;;;;;11.25;6.00;;;;;25.44;35.21;101965.16;4985164;28;45378;-85
2022/05/07 00:57:49;;;;;;;;;6.50;6.50;;;;;25.45;34.25;101958.75;5004092;28;45432;-86
2022/05/07 01:00:15;;;;;;;;;9.75;8.00;;;;;25.60;35.71;101951.63;5004325;28;47080;-85
2022/05/07 01:02:43;;;;;;;;;10.75;7.75;;;;;25.55;35.35;101971.06;5013091;28;45309;-85
2022/05/07 01:05:11;;;;;;;;;9.50;9.00;;;;;24.86;36.69;101961.56;5005963;28;45250;-85
2022/05/07 01:07:36;;;;;;;;;9.00;8.00;;;;;24.72;36.46;101964.09;5007334;28;45737;-85
2022/05/07 01:10:08;;;;;;;;;11.75;7.00;;;;;24.74;35.66;101957.53;5023643;28;45509;-85
2022/05/07 01:12:36;;;;;;;;;9.25;7.75;;;;;26.55;35.75;101953.31;5024342;28;45440;-85
2022/05/07 01:15:02;;;;;;;;;12.50;8.50;;;;;24.98;36.13;101962.13;5004244;28;45436;-85
2022/05/07 01:17:33;;;;;;;;;10.00;9.00;;;;;25.16;35.54;101976.34;5020576;28;45467;-85
2022/05/07 01:20:15;;;;;;;;;9.75;8.75;;;;;24.90;35.66;101962.09;5019763;28;45840;-85
2022/05/07 01:22:42;;;;;;;;;10.25;8.25;;;;;24.97;36.27;101974.81;4985450;28;45976;-85
2022/05/07 01:25:10;;;;;;;;;12.00;11.50;;;;;24.89;35.57;101971.22;5001037;28;45405;-85
2022/05/07 01:27:39;;;;;;;;;10.75;8.75;;;;;25.13;35.41;101962.31;4982854;28;45447;-85
2022/05/07 01:30:18;;;;;;;;;12.75;10.00;;;;;25.11;35.51;101964.34;4993945;28;47355;-85
2022/05/07 01:32:53;;;;;;;;;;;;;;;;;;;;;
2022/05/07 01:35:21;;;;;;;;;10.75;8.25;;;;;25.21;35.04;101951.50;5019517;28;68988;-85
2022/05/07 01:37:52;;;;;;;;;11.25;8.25;;;;;25.21;35.13;101973.13;5001630;28;45699;-84
2022/05/07 01:40:24;;;;;;;;;12.00;9.75;;;;;25.14;35.97;101959.44;5018817;28;47648;-85
2022/05/07 01:42:50;;;;;;;;;12.75;11.25;;;;;25.15;35.81;101966.53;5009209;28;45583;-85
2022/05/07 01:45:20;;;;;;;;;10.00;9.75;;;;;25.33;35.24;101948.28;4982623;28;45406;-85
2022/05/07 01:50:35;;;;;;;;;12.75;10.00;;;;;28.80;33.26;101950.28;5001112;28;45399;-85
2022/05/07 01:53:01;;;;;;;;;11.75;10.50;;;;;24.65;36.99;101953.13;5002167;28;45371;-85
2022/05/07 01:55:29;;;;;;;;;10.25;10.25;;;;;24.52;37.03;101958.13;4985418;28;45276;-85
2022/05/07 01:57:58;;;;;;;;;12.00;10.25;;;;;25.80;35.91;101952.09;5022965;28;45368;-85
2022/05/07 02:00:23;;;;;;;;;13.50;11.00;;;;;24.44;36.84;101952.72;4982261;28;47271;-85
2022/05/07 02:02:51;;;;;;;;;9.50;9.00;;;;;24.49;36.28;101947.69;4982403;28;45340;-85
2022/05/07 02:05:19;;;;;;;;;10.75;10.50;;;;;24.57;36.06;101951.25;4982830;28;45442;-85
2022/05/07 02:07:45;;;;;;;;;12.00;9.00;;;;;24.64;36.47;101955.97;4994936;28;45621;-86
2022/05/07 02:10:16;;;;;;;;;11.75;11.75;;;;;24.80;35.86;101940.63;5018342;28;45433;-85
2022/05/07 02:12:44;;;;;;;;;12.00;11.75;;;;;24.47;36.10;101955.94;5003760;28;45336;-85
2022/05/07 02:15:12;;;;;;;;;12.25;11.50;;;;;24.61;36.42;101947.19;5001893;28;45381;-85
2022/05/07 02:17:38;;;;;;;;;11.50;8.75;;;;;24.46;36.87;101950.72;5019371;28;45388;-85
2022/05/07 02:20:04;;;;;;;;;14.50;11.25;;;;;24.43;36.68;101943.78;5019700;28;45514;-85
2022/05/07 02:22:30;;;;;;;;;15.25;12.25;;;;;24.31;37.34;101955.06;5001871;28;45336;-85
2022/05/07 02:24:59;;;;;;;;;10.50;8.00;;;;;24.29;36.95;101947.13;5002259;28;45559;-85
2022/05/07 02:27:26;;;;;;;;;10.50;9.50;;;;;24.27;37.21;101941.03;4999286;28;45455;-86
2022/05/07 02:29:53;;;;;;;;;11.50;9.00;;;;;24.37;36.83;101957.09;5001426;28;48375;-86
2022/05/07 02:32:19;;;;;;;;;15.50;8.25;;;;;24.33;37.14;101947.63;5018374;28;45396;-85
2022/05/07 02:34:46;;;;;;;;;10.25;9.00;;;;;24.34;36.83;101949.31;5019752;28;45443;-85
2022/05/07 02:37:12;;;;;;;;;12.50;10.25;;;;;25.46;36.97;101947.75;4997778;28;45436;-85
2022/05/07 02:39:39;;;;;;;;;12.50;11.25;;;;;24.45;37.48;101951.72;4999521;28;45300;-85
2022/05/07 02:44:49;;;;;;;;;13.75;10.25;;;;;24.14;37.26;101954.94;4999692;28;45590;-85
2022/05/07 02:47:15;;;;;;;;;10.00;8.50;;;;;24.06;37.79;101945.97;5000600;28;45781;-85
2022/05/07 02:49:41;;;;;;;;;11.25;10.50;;;;;24.04;37.66;101953.38;4999407;28;46062;-85
2022/05/07 02:52:06;;;;;;;;;12.25;10.00;;;;;24.26;37.43;101939.34;4981842;28;45822;-85
2022/05/07 02:54:32;;;;;;;;;14.25;10.25;;;;;23.84;37.69;101950.94;4999713;28;45502;-85
2022/05/07 02:56:58;;;;;;;;;15.50;12.00;;;;;23.75;38.46;101943.81;5003016;28;45655;-85
2022/05/07 02:59:23;;;;;;;;;9.25;8.00;;;;;24.10;38.16;101960.84;5005096;28;47875;-85
2022/05/07 03:01:49;;;;;;;;;14.25;12.75;;;;;23.90;37.99;101957.53;4999327;28;45425;-85
2022/05/07 03:04:15;;;;;;;;;14.50;11.25;;;;;23.73;38.79;101945.81;4981912;28;45477;-85
2022/05/07 03:06:40;;;;;;;;;14.50;11.00;;;;;23.86;38.07;101951.59;5005005;28;45446;-85
2022/05/07 03:09:05;;;;;;;;;10.50;9.25;;;;;24.36;37.91;101945.44;4988868;28;46906;-85
2022/05/07 03:11:33;;;;;;;;;16.50;10.50;;;;;28.24;31.90;101933.75;5001529;28;45215;-85
2022/05/07 03:14:05;;;;;;;;;12.25;9.50;;;;;24.67;37.30;101950.25;5021152;28;45286;-85
2022/05/07 03:16:31;;;;;;;;;11.75;9.50;;;;;24.00;37.89;101946.63;5017501;28;45569;-85
2022/05/07 03:18:57;;;;;;;;;12.75;11.75;;;;;23.96;38.34;101942.53;5003299;28;45387;-85
2022/05/07 03:21:23;;;;;;;;;13.00;9.50;;;;;23.94;37.78;101937.34;5001183;28;45713;-85
2022/05/07 03:23:48;;;;;;;;;12.00;11.00;;;;;23.92;38.52;101946.59;5001362;28;45323;-85
2022/05/07 03:26:14;;;;;;;;;13.75;8.75;;;;;23.74;38.86;101935.88;5001225;28;45572;-85
2022/05/07 03:28:40;;;;;;;;;9.25;8.75;;;;;23.78;39.09;101948.88;5005253;28;46034;-85
2022/05/07 03:31:06;;;;;;;;;11.00;10.25;;;;;23.70;38.55;101937.19;5000820;28;45517;-85
2022/05/07 03:33:34;;;;;;;;;13.25;11.75;;;;;24.16;38.75;101947.53;5018159;28;45548;-85
2022/05/07 03:35:59;;;;;;;;;11.50;11.50;;;;;24.56;38.61;101954.13;5000857;28;45524;-85
2022/05/07 03:38:25;;;;;;;;;14.75;9.25;;;;;24.47;37.94;101950.56;5015269;28;47568;-85
2022/05/07 03:40:50;;;;;;;;;9.50;7.75;;;;;23.35;40.24;101962.38;5018571;28;45440;-85
2022/05/07 03:43:16;;;;;;;;;9.25;9.00;;;;;24.18;38.24;101939.28;5020263;28;45313;-85
2022/05/07 03:45:42;;;;;;;;;12.75;11.25;;;;;24.38;37.95;101938.03;5022127;28;45278;-85
2022/05/07 03:48:11;;;;;;;;;13.50;11.50;;;;;24.09;38.23;101926.75;5021233;28;46176;-85
2022/05/07 03:50:36;;;;;;;;;14.25;10.75;;;;;24.09;38.37;101930.31;5002528;28;45611;-85
2022/05/07 03:55:46;;;;;;;;;12.00;12.00;;;;;23.50;39.75;101953.59;5010411;28;45429;-85
2022/05/07 03:58:15;;;;;;;;;14.25;11.50;;;;;24.04;38.60;101926.38;5021819;28;46145;-85
2022/05/07 04:00:43;;;;;;;;;13.75;11.75;;;;;24.72;38.01;101924.41;4983980;28;45806;-85
2022/05/07 04:03:32;;;;;;;;;10.75;10.50;;;;;24.67;37.42;101925.94;4984295;28;45299;-85
2022/05/07 04:05:59;;;;;;;;;17.75;12.75;;;;;24.67;37.44;101925.94;4982617;28;45688;-85
2022/05/07 04:08:28;;;;;;;;;15.00;12.50;;;;;24.75;37.27;101934.06;5003756;28;47345;-85
2022/05/07 04:10:59;;;;;;;;;12.25;10.25;;;;;24.72;37.72;101929.81;5021720;28;45353;-85
2022/05/07 04:13:26;;;;;;;;;15.75;12.50;;;;;24.88;37.28;101927.13;5023728;28;45507;-85
2022/05/07 04:15:54;;;;;;;;;12.75;11.75;;;;;25.10;37.21;101936.47;5006028;28;45632;-85
2022/05/07 04:18:30;;;;;;;;;15.25;13.25;;;;;24.23;38.23;101926.16;4984052;28;47683;-85
2022/05/07 04:20:56;;;;;;;;;11.75;11.00;;;;;23.99;39.33;101928.75;4983978;28;45480;-85
2022/05/07 04:23:21;;;;;;;;;11.00;10.50;;;;;25.43;36.43;101931.00;4984354;28;45521;-85
2022/05/07 04:25:47;;;;;;;;;17.00;13.00;;;;;25.84;35.05;101918.28;5014961;28;45344;-85
2022/05/07 04:28:14;;;;;;;;;12.75;12.00;;;;;24.56;37.38;101924.41;5003503;28;47295;-85
2022/05/07 04:30:42;;;;;;;;;13.25;11.75;;;;;24.38;38.34;101927.25;5003085;28;45444;-85
2022/05/07 04:33:14;;;;;;;;;21.25;14.50;;;;;24.28;37.96;101931.94;5003686;28;45267;-85
2022/05/07 04:35:42;;;;;;;;;20.00;15.50;;;;;23.58;39.83;101931.22;5018060;28;45423;-85
2022/05/07 04:38:19;;;;;;;;;19.00;14.00;;;;;23.91;39.92;101937.66;4983643;28;46477;-85
2022/05/07 04:41:04;;;;;;;;;13.50;11.00;;;;;23.60;40.78;101931.91;4983652;28;45687;-85
2022/05/07 04:43:35;;;;;;;;;13.75;13.50;;;;;23.47;39.80;101939.56;4983792;28;45446;-85
2022/05/07 04:46:00;;;;;;;;;17.75;14.75;;;;;23.48;40.49;101941.25;4995397;28;45423;-85
2022/05/07 04:48:28;;;;;;;;;13.75;11.50;;;;;23.70;39.80;101940.75;5001866;28;45365;-85
2022/05/07 04:51:01;;;;;;;;;17.50;15.50;;;;;23.63;40.46;101938.84;5021337;28;45554;-85
2022/05/07 04:53:32;;;;;;;;;19.50;14.00;;;;;24.47;39.50;101937.06;5003058;28;45380;-85
2022/05/07 04:55:57;;;;;;;;;17.25;12.75;;;;;23.36;40.37;101943.38;5021794;28;45463;-85
2022/05/07 04:58:23;;;;;;;;;18.50;13.25;;;;;23.77;40.33;101935.53;5024168;28;48095;-85
2022/05/07 05:01:00;;;;;;;;;14.50;12.50;;;;;23.76;40.53;101934.69;5020792;28;45471;-85
2022/05/07 05:03:29;;;;;;;;;14.75;14.00;;;;;24.64;38.42;101931.69;5020798;28;45313;-85
2022/05/07 05:05:54;;;;;;;;;15.50;13.50;;;;;25.41;37.38;101923.06;5002823;28;45475;-85
2022/05/07 05:08:20;;;;;;;;;21.00;14.75;;;;;25.53;35.01;101921.69;5020681;28;45326;-86
2022/05/07 05:10:48;;;;;;;;;18.25;16.25;;;;;25.56;37.29;101926.78;5020897;28;45553;-86
2022/05/07 05:13:16;;;;;;;;;20.00;15.00;;;;;27.68;33.63;101920.88;5004508;28;45397;-85
2022/05/07 05:15:52;;;;;;;;;;;;;;;;;;;;;
2022/05/07 05:18:22;;;;;;;;;17.50;13.50;;;;;25.11;37.65;101921.09;4999749;28;75313;-85
2022/05/07 05:20:57;;;;;;;;;16.50;13.25;;;;;24.44;40.06;101937.38;5000715;28;45534;-85
2022/05/07 05:23:32;;;;;;;;;19.25;15.25;;;;;24.22;38.90;101933.41;4983259;28;45600;-85
2022/05/07 05:25:57;;;;;;;;;20.50;15.00;;;;;24.25;39.31;101934.94;4995835;28;45520;-85
2022/05/07 05:28:25;;;;;;;;;18.25;15.00;;;;;24.36;39.20;101926.56;4983066;28;46878;-86
2022/05/07 05:30:51;;;;;;;;;19.00;16.00;;;;;25.45;37.70;101916.31;4982500;28;45734;-85
2022/05/07 05:33:27;;;;;;;;;21.00;15.00;;;;;24.41;39.30;101918.78;5001998;28;45306;-85
2022/05/07 05:35:53;;;;;;;;;14.50;13.00;;;;;23.76;40.12;101920.38;5005438;28;45492;-85
2022/05/07 05:38:24;;;;;;;;;20.25;14.75;;;;;23.65;40.07;101910.72;5003618;28;45497;-86
2022/05/07 05:40:59;;;;;;;;;25.00;19.00;;;;;23.62;40.51;101929.06;5006782;28;45735;-86
2022/05/07 05:43:28;;;;;;;;;22.25;15.00;;;;;24.06;39.62;101930.63;5006727;28;45533;-85
2022/05/07 05:45:53;;;;;;;;;20.75;14.25;;;;;23.89;40.42;101942.34;4998172;28;45515;-86
2022/05/07 05:48:23;;;;;;;;;20.75;15.75;;;;;23.89;40.78;101939.66;4986910;28;47209;-85
2022/05/07 05:50:56;;;;;;;;;18.50;14.00;;;;;24.43;39.94;101937.53;5001552;28;45537;-85
2022/05/07 05:53:40;;;;;;;;;20.25;17.00;;;;;23.83;40.55;101937.63;4983472;28;45354;-85
2022/05/07 05:56:06;;;;;;;;;19.00;15.25;;;;;24.02;40.29;101933.81;5007341;28;45481;-86
2022/05/07 05:58:35;;;;;;;;;19.25;14.50;;;;;23.74;41.28;101941.28;5003263;28;47000;-86
2022/05/07 06:01:11;;;;;;;;;17.75;15.25;;;;;23.71;41.05;101931.66;5001895;28;45449;-86
2022/05/07 06:03:42;;;;;;;;;28.00;16.25;;;;;23.74;40.74;101938.59;5012816;28;45384;-85
2022/05/07 06:06:09;;;;;;;;;21.25;15.00;;;;;24.38;39.78;101929.09;4983420;28;45509;-86
2022/05/07 06:08:37;;;;;;;;;23.75;17.25;;;;;24.09;40.43;101938.41;4993839;28;46398;-85
2022/05/07 06:11:05;;;;;;;;;20.00;17.50;;;;;24.10;40.51;101929.31;4990498;28;45705;-85
2022/05/07 06:13:34;;;;;;;;;24.25;15.50;;;;;24.29;40.24;101936.31;5013458;28;45519;-85
2022/05/07 06:15:59;;;;;;;;;20.50;17.50;;;;;25.01;38.65;101931.22;5014812;28;45923;-85
2022/05/07 06:18:44;;;;;;;;;22.75;17.75;;;;;24.40;39.87;101932.47;4998915;28;47096;-85
2022/05/07 06:21:09;;;;;;;;;29.00;17.50;;;;;24.92;38.22;101936.63;5009759;28;46191;-85
2022/05/07 06:23:37;;;;;;;;;21.00;17.25;;;;;24.30;39.75;101927.22;4994232;28;45638;-86
2022/05/07 06:29:04;;;;;;;;;22.50;18.25;;;;;24.48;40.39;101940.59;5011913;28;45480;-85
2022/05/07 06:31:38;;;;;;;;;21.00;17.75;;;;;24.17;40.30;101937.59;5019920;28;45486;-85
2022/05/07 06:34:13;;;;;;;;;26.50;20.00;;;;;24.52;40.46;101945.50;5020884;28;45923;-85
2022/05/07 06:36:41;;;;;;;;;19.00;17.25;;;;;24.64;40.14;101955.97;5020364;28;45563;-85
2022/05/07 06:39:31;;;;;;;;;18.25;15.50;;;;;25.16;39.59;101951.16;5021083;28;47636;-86
2022/05/07 06:42:00;;;;;;;;;16.50;14.25;;;;;25.28;38.32;101960.63;4996648;28;45444;-87
2022/05/07 06:44:33;;;;;;;;;25.00;19.25;;;;;25.26;38.57;101962.66;5004153;28;45461;-85
2022/05/07 06:47:02;;;;;;;;;22.50;17.00;;;;;25.49;38.33;101973.63;5001360;28;45648;-85
2022/05/07 06:49:43;;;;;;;;;27.00;22.00;;;;;25.35;38.69;101967.03;4991961;28;47459;-85
2022/05/07 06:52:18;;;;;;;;;25.25;19.25;;;;;25.67;37.58;101968.91;4998025;28;45584;-86
2022/05/07 06:54:51;;;;;;;;;23.75;18.00;;;;;25.42;38.38;101975.31;5000123;28;45436;-86
2022/05/07 06:57:17;;;;;;;;;22.00;17.50;;;;;25.94;37.72;101981.16;4993588;28;47100;-87
2022/05/07 06:59:46;;;;;;;;;25.75;17.50;;;;;25.44;38.67;101982.25;5016985;28;45428;-86
2022/05/07 07:02:11;;;;;;;;;21.00;16.75;;;;;25.93;37.75;101980.31;4998791;28;45713;-85
2022/05/07 07:05:35;;;;;;;;;25.25;15.00;;;;;25.66;37.84;101991.56;5017366;28;45335;-83
2022/05/07 07:14:50;;;;;;;;;32.25;25.00;;;;;25.75;37.98;101985.09;4986717;28;45314;-84
2022/05/07 07:17:25;;;;;;;;;27.00;24.75;;;;;27.50;37.64;101984.44;4998617;28;45236;-83
2022/05/07 07:20:04;;;;;;;;;25.25;18.50;;;;;25.83;38.04;101978.81;4934380;28;45284;-88
2022/05/07 07:22:44;;;;;;;;;24.00;20.00;;;;;26.06;37.76;101971.63;4925586;28;47228;-83
2022/05/07 07:25:40;;;;;;;;;;;;;;;;;;;;;
2022/05/07 07:28:42;;;;;;;;;23.00;19.50;;;;;27.40;35.02;101983.88;4943047;28;69148;-83
2022/05/07 07:31:37;;;;;;;;;21.25;17.50;;;;;26.90;36.45;101980.84;4930124;28;45426;-83
2022/05/07 07:37:38;;;;;;;;;;;;;;;;;;;;;
2022/05/07 07:40:41;;;;;;;;;;;;;;;;;;;;;
2022/05/07 07:43:04;;;;;;;;;22.50;19.25;;;;;26.78;36.37;101977.72;4940095;28;45419;-82
2022/05/07 07:49:10;;;;;;;;;23.75;18.50;;;;;26.76;36.12;101974.38;4938931;28;45846;-82
2022/05/07 07:52:19;;;;;;;;;;;;;;;;;;;;;
2022/05/07 07:54:59;;;;;;;;;;;;;;;;;;;;;
2022/05/07 07:58:31;;;;;;;;;21.75;18.00;;;;;26.84;36.34;101971.59;4974145;28;75384;-82
2022/05/07 08:01:02;;;;;;;;;20.25;14.75;;;;;27.70;35.69;101973.09;4966153;28;45375;-82
2022/05/07 08:04:17;;;;;;;;;;;;;;;;;;;;;
2022/05/07 08:12:34;;;;;;;;;16.00;12.75;;;;;27.66;35.77;101974.50;5016057;28;46439;-84
2022/05/07 08:14:59;;;;;;;;;18.00;14.75;;;;;28.24;35.17;101965.50;5021946;28;45463;-85
2022/05/07 08:17:25;;;;;;;;;17.50;13.50;;;;;28.69;34.48;101972.50;5003665;28;45436;-84
2022/05/07 08:19:50;;;;;;;;;14.75;13.75;;;;;29.56;33.25;101962.28;5003131;28;45406;-85
2022/05/07 08:22:15;;;;;;;;;21.75;17.25;;;;;29.41;33.79;101956.09;4990777;28;45374;-86
2022/05/07 08:24:43;;;;;;;;;16.50;13.25;;;;;30.76;32.15;101965.41;4987956;28;45401;-82
2022/05/07 08:27:09;;;;;;;;;16.50;11.50;;;;;30.91;31.38;101967.94;5002652;28;45429;-82
2022/05/07 08:29:36;;;;;;;;;14.50;13.50;;;;;30.91;32.04;101962.47;4995883;28;47331;-82
2022/05/07 08:32:10;;;;;;;;;18.00;14.50;;;;;31.24;31.35;101968.81;4996006;28;45436;-83
2022/05/07 08:35:06;;;;;;;;;;;;;;;;;;;;;
2022/05/07 08:37:41;;;;;;;;;12.50;11.75;;;;;34.29;29.15;101961.31;4999251;28;71524;-86
2022/05/07 08:40:34;;;;;;;;;;;;;;;;;;;;;
2022/05/07 08:53:05;;;;;;;;;16.75;13.00;;;;;35.64;26.25;101962.34;5670159;23;47305;-81
2022/05/07 08:55:36;;;;;;;;;14.25;11.75;;;;;35.71;26.28;101962.22;5018613;28;45765;-77
2022/05/07 09:33:01;;;;;;;;;14.00;13.25;;;;;41.25;21.75;101940.44;5889231;22;45940;-80
2022/05/07 09:35:47;;;;;;;;;20.25;13.00;;;;;40.82;20.82;101938.22;4947463;28;45312;-79
2022/05/07 10:24:58;;;;;;;;;;;;;;;;;;;;;
2022/05/07 12:57:28;;;;;;;;;12.00;12.00;;;;;34.85;25.81;101872.28;4824731;26;46103;-79
2022/05/07 13:00:04;;;;;;;;;15.00;11.25;;;;;35.10;25.94;101874.78;4997569;28;45948;-78
2022/05/07 13:06:10;;;;;;;;;;;;;;;;;;;;;
2022/05/07 13:12:24;;;;;;;;;;;;;;;;;;;;;
2022/05/07 13:15:29;;;;;;;;;;;;;;;;;;;;;
2022/05/07 13:18:42;;;;;;;;;;;;;;;;;;;;;
2022/05/07 13:25:35;;;;;;;;;11.75;7.50;;;;;35.25;24.56;101844.94;4997891;28;45685;-78
2022/05/07 13:28:20;;;;;;;;;10.25;7.50;;;;;35.14;24.56;101846.63;4960941;28;46150;-78
2022/05/07 13:31:00;;;;;;;;;;;;;;;;;;;;;
2022/05/07 13:33:38;;;;;;;;;;;;;;;;;;;;;
2022/05/07 13:36:13;;;;;;;;;8.25;8.00;;;;;34.50;24.25;101840.09;4992346;28;74049;-78
2022/05/07 13:38:58;;;;;;;;;8.00;5.50;;;;;34.31;23.78;101829.44;4981545;28;45462;-78
2022/05/07 13:44:52;;;;;;;;;;;;;;;;;;;;;
2022/05/07 13:47:23;;;;;;;;;8.00;5.25;;;;;34.22;23.54;101820.69;4980101;28;74149;-78
2022/05/07 13:52:39;;;;;;;;;6.00;6.00;;;;;33.95;23.97;101811.16;4986589;28;45536;-78
2022/05/07 13:55:28;;;;;;;;;8.25;5.25;;;;;33.93;23.71;101816.03;5000620;28;45485;-78
2022/05/07 13:58:05;;;;;;;;;10.25;9.00;;;;;33.71;23.64;101812.91;4967834;28;45448;-78
2022/05/07 14:01:40;;;;;;;;;;;;;;;;;;;;;
2022/05/07 14:07:34;;;;;;;;;5.00;4.75;;;;;39.49;19.59;101797.88;4992458;28;45385;-79
2022/05/07 14:10:16;;;;;;;;;4.00;4.00;;;;;34.30;23.31;101795.69;4995018;28;45379;-79
2022/05/07 14:12:58;;;;;;;;;6.00;4.00;;;;;34.31;22.19;101785.56;4986885;28;46292;-79
2022/05/07 14:22:25;;;;;;;;;;;;;;;;;;;;;
2022/05/07 14:32:42;;;;;;;;;8.00;5.25;;;;;34.27;22.64;101776.94;4990296;28;45514;-77
2022/05/07 14:35:44;;;;;;;;;;;;;;;;;;;;;
2022/05/07 14:38:23;;;;;;;;;10.75;6.75;;;;;34.30;22.33;101760.03;4974182;28;75835;-81
2022/05/07 15:19:05;;;;;;;;;6.50;5.00;;;;;32.53;22.43;101713.75;4825075;29;45477;-84
2022/05/07 18:48:30;;;;;;;;;7.50;5.25;;;;;28.93;27.84;101762.78;4915003;28;45507;-78
